createdAt,value
2023-10-29T00:00:02.426Z,0
2023-10-29T00:15:02.910Z,0
2023-10-29T00:30:02.330Z,0
2023-10-29T00:45:02.920Z,0
2023-10-29T01:00:02.189Z,0
2023-10-29T01:15:02.938Z,0
2023-10-29T01:30:02.138Z,0
2023-10-29T01:45:02.564Z,0
2023-10-29T02:00:02.952Z,0
2023-10-29T02:15:02.427Z,0
2023-10-29T02:30:02.960Z,0
2023-10-29T02:45:02.430Z,0
2023-10-29T03:00:02.961Z,0
2023-10-29T03:15:02.203Z,0
2023-10-29T03:30:02.643Z,1
2023-10-29T03:45:03.132Z,0
2023-10-29T04:00:02.500Z,0
2023-10-29T04:15:02.998Z,0
2023-10-29T04:30:02.465Z,0
2023-10-29T04:45:02.958Z,0
2023-10-29T05:00:02.333Z,0
2023-10-29T05:15:03.025Z,0
2023-10-29T05:30:03.162Z,0
2023-10-29T05:45:02.576Z,0
2023-10-29T06:00:03.086Z,0
2023-10-29T06:15:02.486Z,0
2023-10-29T06:30:03.029Z,0
2023-10-29T06:45:02.327Z,6
2023-10-29T07:00:02.978Z,10
2023-10-29T07:15:02.188Z,14
2023-10-29T07:30:02.665Z,27
2023-10-29T07:45:03.106Z,28
2023-10-29T08:00:02.505Z,24
2023-10-29T08:15:02.961Z,139
2023-10-29T08:30:03.333Z,83
2023-10-29T08:45:02.136Z,223
2023-10-29T09:00:02.234Z,193
2023-10-29T09:15:02.733Z,93
2023-10-29T09:30:02.102Z,51
2023-10-29T09:45:02.592Z,89
2023-10-29T10:00:03.032Z,227
2023-10-29T10:15:02.440Z,123
2023-10-29T10:30:03.022Z,249
2023-10-29T10:45:02.330Z,384
2023-10-29T11:00:03.054Z,158
2023-10-29T11:15:02.177Z,449
2023-10-29T11:30:03.297Z,234
2023-10-29T11:45:03.151Z,218
2023-10-29T12:00:02.505Z,301
2023-10-29T12:15:03.075Z,156
2023-10-29T12:30:02.398Z,128
2023-10-29T12:45:03.028Z,131
2023-10-29T13:00:02.286Z,111
2023-10-29T13:15:02.698Z,112
2023-10-29T13:30:03.192Z,60
2023-10-29T13:45:02.665Z,68
2023-10-29T14:00:03.048Z,30
2023-10-29T14:15:02.453Z,102
2023-10-29T14:30:03.093Z,27
2023-10-29T14:45:02.326Z,2
2023-10-29T15:00:02.973Z,12
2023-10-29T15:15:05.804Z,23
2023-10-29T15:30:02.872Z,0
2023-10-29T15:45:02.186Z,0
2023-10-29T16:00:02.548Z,0
2023-10-29T16:15:03.111Z,0
2023-10-29T16:30:02.394Z,0
2023-10-29T16:45:03.070Z,0
2023-10-29T17:00:02.330Z,0
2023-10-29T17:15:02.754Z,0
2023-10-29T17:30:02.261Z,0
2023-10-29T17:45:02.695Z,0
2023-10-29T18:00:03.097Z,0
2023-10-29T18:15:02.508Z,0
2023-10-29T18:30:05.358Z,0
2023-10-29T18:45:02.393Z,0
2023-10-29T19:00:02.805Z,0
2023-10-29T19:15:02.300Z,0
2023-10-29T19:30:02.681Z,0
2023-10-29T19:45:03.255Z,0
2023-10-29T20:00:02.611Z,0
2023-10-29T20:15:03.148Z,0
2023-10-29T20:30:02.407Z,0
2023-10-29T20:45:03.109Z,0
2023-10-29T21:00:02.359Z,0
2023-10-29T21:15:02.736Z,0
2023-10-29T21:30:03.185Z,0
2023-10-29T21:45:02.587Z,0
2023-10-29T22:00:03.154Z,0
2023-10-29T22:15:02.435Z,0
2023-10-29T22:30:03.649Z,0
2023-10-29T23:00:02.809Z,0
2023-10-29T23:15:02.200Z,0
2023-10-29T23:30:02.637Z,0
2023-10-29T23:45:03.154Z,0
